Time;durP1;ratioP1;P1;durP2;ratioP2;P2;SDS_P1;SDS_P2;PMS_P1;PMS_P2;Temp;Humidity;BMP_temperature;BMP_pressure;BME280_temperature;BME280_humidity;BME280_pressure;Samples;Min_cycle;Max_cycle;Signal;HPM_P1;HPM_P2
2022/01/08 00:00:57;;;;;;;60.08;25.60;;;;;;;0.52;100.00;100407.06;5108602;28;20118;-76
2022/01/08 00:03:23;;;;;;;61.30;25.98;;;;;;;0.52;100.00;100412.31;5126277;28;20019;-76
2022/01/08 00:05:48;;;;;;;59.90;24.23;;;;;;;0.45;100.00;100411.88;5108878;28;20826;-74
2022/01/08 00:08:15;;;;;;;61.13;24.20;;;;;;;0.55;100.00;100430.47;5109124;28;20265;-74
2022/01/08 00:10:41;;;;;;;61.75;25.48;;;;;;;0.51;100.00;100427.22;5125957;27;20312;-75
2022/01/08 00:13:07;;;;;;;56.17;25.35;;;;;;;0.51;100.00;100442.13;5108993;28;20051;-77
2022/01/08 00:15:34;;;;;;;57.90;24.77;;;;;;;0.53;100.00;100451.59;5108588;28;20071;-77
2022/01/08 00:18:00;;;;;;;59.78;25.55;;;;;;;0.50;100.00;100453.59;5126372;28;20027;-77
2022/01/08 00:20:27;;;;;;;60.40;24.98;;;;;;;0.49;100.00;100451.91;5125916;28;20056;-76
2022/01/08 00:22:54;;;;;;;58.38;22.90;;;;;;;0.41;100.00;100429.63;5126278;27;20023;-76
2022/01/08 00:25:20;;;;;;;57.22;24.65;;;;;;;0.37;100.00;100429.94;5125410;28;20126;-77
2022/01/08 00:27:45;;;;;;;56.85;23.98;;;;;;;0.43;100.00;100449.72;5126025;27;20118;-77
2022/01/08 00:30:13;;;;;;;50.22;21.42;;;;;;;0.39;100.00;100444.66;5108690;28;20126;-76
2022/01/08 00:32:39;;;;;;;51.70;23.25;;;;;;;0.29;100.00;100429.63;5109047;28;20016;-76
2022/01/08 00:35:07;;;;;;;56.67;23.02;;;;;;;0.26;100.00;100443.81;5125271;28;20063;-75
2022/01/08 00:37:34;;;;;;;59.20;23.67;;;;;;;0.39;100.00;100468.28;5108950;28;20074;-77
2022/01/08 00:40:00;;;;;;;46.40;20.73;;;;;;;0.47;100.00;100482.69;5108320;28;20027;-76
2022/01/08 00:42:26;;;;;;;58.03;20.70;;;;;;;0.49;100.00;100481.66;5125834;28;20031;-76
2022/01/08 00:44:51;;;;;;;45.88;20.60;;;;;;;0.49;100.00;100486.06;5108681;27;20039;-75
2022/01/08 00:47:16;;;;;;;51.47;23.73;;;;;;;0.51;100.00;100478.91;5130090;27;20484;-77
2022/01/08 00:49:42;;;;;;;44.88;20.90;;;;;;;0.53;100.00;100477.03;5112437;27;20589;-77
2022/01/08 00:52:07;;;;;;;49.22;21.50;;;;;;;0.56;100.00;100477.66;5129810;27;20055;-74
2022/01/08 00:54:35;;;;;;;41.63;20.45;;;;;;;0.63;100.00;100478.94;5112003;27;20091;-77
2022/01/08 00:57:01;;;;;;;47.22;19.40;;;;;;;0.57;100.00;100457.50;5112509;27;20023;-77
2022/01/08 00:59:27;;;;;;;38.97;17.80;;;;;;;0.61;100.00;100464.22;5130695;27;20030;-77
2022/01/08 01:01:52;;;;;;;37.20;17.00;;;;;;;0.60;100.00;100452.00;5111725;27;20392;-76
2022/01/08 01:04:17;;;;;;;45.40;19.13;;;;;;;0.74;100.00;100464.19;5129533;27;20309;-77
2022/01/08 01:06:43;;;;;;;34.88;15.88;;;;;;;0.67;100.00;100445.38;5112252;27;20107;-77
2022/01/08 01:09:08;;;;;;;36.53;16.77;;;;;;;0.70;100.00;100439.06;5130247;27;20429;-76
2022/01/08 01:11:33;;;;;;;31.67;15.52;;;;;;;0.75;100.00;100431.69;5129328;27;20123;-75
2022/01/08 01:13:59;;;;;;;28.30;14.83;;;;;;;0.73;100.00;100410.81;5128919;27;20117;-75
2022/01/08 01:16:24;;;;;;;28.27;14.35;;;;;;;0.78;100.00;100413.94;5128562;27;20447;-77
2022/01/08 01:18:50;;;;;;;50.30;16.88;;;;;;;0.78;100.00;100387.66;5129252;27;20054;-77
2022/01/08 01:21:15;;;;;;;29.35;12.88;;;;;;;0.81;100.00;100376.94;5112108;27;20050;-77
2022/01/08 01:23:43;;;;;;;31.50;14.17;;;;;;;0.76;100.00;100337.00;5128830;27;20035;-75
2022/01/08 01:26:14;;;;;;;26.40;12.13;;;;;;;0.77;100.00;100322.94;5129375;27;20261;-74
2022/01/08 01:28:50;;;;;;;28.65;13.63;;;;;;;0.73;100.00;100313.59;5111517;27;20091;-77
2022/01/08 01:47:28;;;;;;;29.23;10.82;;;;;;;0.68;100.00;100231.63;5122908;27;20403;-75
2022/01/08 01:49:53;;;;;;;20.58;10.45;;;;;;;0.67;100.00;100226.47;5111980;27;20100;-75
2022/01/08 01:52:18;;;;;;;23.80;10.83;;;;;;;0.72;100.00;100212.03;5128671;27;20080;-75
2022/01/08 01:54:44;;;;;;;20.80;10.25;;;;;;;0.58;100.00;100194.66;5129411;27;20038;-76
2022/01/08 01:57:12;;;;;;;20.38;10.30;;;;;;;0.62;100.00;100198.75;5111615;27;20388;-77
2022/01/08 01:59:38;;;;;;;32.55;11.32;;;;;;;0.63;100.00;100199.56;5090399;22;20609;-78
2022/01/08 02:02:04;;;;;;;20.70;9.25;;;;;;;0.59;100.00;100185.00;5021667;28;20034;-78
2022/01/08 02:04:30;;;;;;;22.55;10.43;;;;;;;0.55;100.00;100171.25;5034513;28;20114;-78
2022/01/08 02:06:55;;;;;;;17.80;10.43;;;;;;;0.56;100.00;100183.44;5046101;28;20061;-78
2022/01/08 02:09:21;;;;;;;20.30;9.87;;;;;;;0.31;100.00;100131.03;5026145;28;20120;-78
2022/01/08 02:11:56;;;;;;;18.13;8.10;;;;;;;0.46;100.00;100161.41;5021490;28;20314;-78
2022/01/08 02:14:22;;;;;;;19.08;7.47;;;;;;;0.52;100.00;100165.38;5028843;28;20063;-78
2022/01/08 02:16:48;;;;;;;16.17;8.50;;;;;;;0.52;100.00;100170.66;5013507;28;20104;-78
2022/01/08 02:19:14;;;;;;;17.35;9.18;;;;;;;0.56;100.00;100179.94;5021156;28;20029;-77
2022/01/08 02:21:48;;;;;;;15.20;8.30;;;;;;;0.55;100.00;100170.41;5029612;28;20111;-77
2022/01/08 02:24:14;;;;;;;17.83;9.00;;;;;;;0.44;100.00;100152.78;5029618;28;20051;-78
2022/01/08 02:26:39;;;;;;;16.67;8.38;;;;;;;0.49;100.00;100160.34;5021855;28;20117;-78
2022/01/08 02:29:04;;;;;;;18.15;9.15;;;;;;;0.44;100.00;100163.31;5029673;28;20045;-78
2022/01/08 02:31:30;;;;;;;19.13;8.80;;;;;;;0.43;100.00;100155.56;5013741;28;20075;-79
2022/01/08 02:33:56;;;;;;;15.27;7.20;;;;;;;0.35;100.00;100145.59;5030646;28;20037;-79
2022/01/08 02:36:21;;;;;;;17.65;9.40;;;;;;;0.44;100.00;100146.72;5026487;28;20084;-79
2022/01/08 02:38:48;;;;;;;16.10;8.47;;;;;;;0.28;100.00;100136.47;5032145;28;20483;-79
2022/01/08 02:41:14;;;;;;;15.25;8.13;;;;;;;0.37;100.00;100157.66;5022637;28;20356;-77
2022/01/08 02:43:45;;;;;;;14.23;7.53;;;;;;;0.26;100.00;100144.47;5025602;28;20026;-77
2022/01/08 02:46:10;;;;;;;16.58;7.10;;;;;;;0.30;100.00;100137.22;5031699;28;20041;-78
2022/01/08 02:48:36;;;;;;;15.15;7.85;;;;;;;0.40;100.00;100157.44;5048187;28;20082;-81
2022/01/08 02:51:02;;;;;;;16.10;8.32;;;;;;;0.36;100.00;100148.09;5014333;28;20064;-77
2022/01/08 02:53:28;;;;;;;16.27;8.00;;;;;;;0.38;100.00;100154.09;5027668;28;20026;-77
2022/01/08 02:55:53;;;;;;;17.35;8.25;;;;;;;0.36;100.00;100148.09;5029379;28;20087;-77
2022/01/08 02:58:18;;;;;;;12.02;6.90;;;;;;;0.40;100.00;100146.94;5036470;28;20030;-76
2022/01/08 03:00:44;;;;;;;15.30;8.40;;;;;;;0.44;100.00;100144.91;5040088;28;20120;-76
2022/01/08 03:03:09;;;;;;;15.40;8.13;;;;;;;0.47;100.00;100159.59;5015601;28;20090;-76
2022/01/08 03:05:35;;;;;;;13.63;7.63;;;;;;;0.35;100.00;100128.06;5025946;28;20832;-78
2022/01/08 03:08:00;;;;;;;16.40;8.32;;;;;;;0.26;100.00;100126.09;5032102;28;20738;-78
2022/01/08 03:10:25;;;;;;;12.70;7.53;;;;;;;0.39;100.00;100129.50;5020937;28;20046;-76
2022/01/08 03:12:51;;;;;;;16.87;8.37;;;;;;;0.32;100.00;100122.19;5030186;28;20272;-77
2022/01/08 03:15:19;;;;;;;11.68;7.15;;;;;;;0.37;100.00;100136.63;5021157;28;20040;-78
2022/01/08 03:17:45;;;;;;;17.55;7.40;;;;;;;0.36;100.00;100127.09;5038547;28;20026;-77
2022/01/08 03:20:14;;;;;;;18.83;8.18;;;;;;;0.43;100.00;100161.63;5022783;28;20033;-77
2022/01/08 03:22:42;;;;;;;19.95;8.48;;;;;;;0.39;100.00;100134.75;5021799;28;20128;-77
2022/01/08 03:25:09;;;;;;;15.32;8.50;;;;;;;0.34;100.00;100126.38;5017010;28;20033;-77
2022/01/08 03:27:34;;;;;;;16.23;8.43;;;;;;;0.39;100.00;100136.53;5022031;28;20043;-78
2022/01/08 03:30:00;;;;;;;16.13;8.15;;;;;;;0.47;100.00;100146.47;5018095;28;20034;-76
2022/01/08 03:32:26;;;;;;;15.38;7.85;;;;;;;0.41;100.00;100135.47;5036749;28;20045;-75
2022/01/08 03:34:52;;;;;;;17.55;9.93;;;;;;;0.34;100.00;100123.75;5030242;28;20507;-77
2022/01/08 03:37:18;;;;;;;16.80;8.45;;;;;;;0.41;100.00;100138.09;5024040;28;20056;-77
2022/01/08 03:39:44;;;;;;;18.50;8.68;;;;;;;0.31;100.00;100110.03;5019364;28;20037;-77
2022/01/08 03:42:09;;;;;;;17.92;9.00;;;;;;;0.28;100.00;100120.72;5021545;28;20136;-77
2022/01/08 03:44:35;;;;;;;17.08;9.65;;;;;;;0.33;100.00;100134.38;5041116;28;20450;-78
2022/01/08 03:49:45;;;;;;;18.55;9.20;;;;;;;0.41;100.00;100142.53;5027294;28;20280;-76
2022/01/08 03:52:12;;;;;;;19.83;9.95;;;;;;;0.31;100.00;100134.47;5020617;28;20411;-77
2022/01/08 03:54:38;;;;;;;20.15;9.60;;;;;;;0.35;100.00;100140.34;5044866;28;20070;-77
2022/01/08 03:57:03;;;;;;;22.98;9.63;;;;;;;0.40;100.00;100136.44;5024823;28;20053;-76
2022/01/08 03:59:29;;;;;;;15.82;8.80;;;;;;;0.38;100.00;100133.09;5016653;28;20114;-76
2022/01/08 04:01:54;;;;;;;22.33;9.70;;;;;;;0.31;100.00;100105.59;5040710;28;20464;-76
2022/01/08 04:04:19;;;;;;;23.80;10.93;;;;;;;0.21;100.00;100088.81;5023548;28;20649;-78
2022/01/08 04:06:45;;;;;;;25.77;12.00;;;;;;;0.30;100.00;100103.91;5019976;28;20069;-77
2022/01/08 04:09:10;;;;;;;22.13;10.23;;;;;;;0.30;100.00;100114.41;5044699;28;20519;-77
2022/01/08 04:11:36;;;;;;;18.73;10.00;;;;;;;0.35;100.00;100116.69;5044437;28;20291;-77
2022/01/08 04:14:01;;;;;;;22.23;10.68;;;;;;;0.36;100.00;100118.38;5036269;28;20057;-78
2022/01/08 04:16:33;;;;;;;21.73;9.90;;;;;;;0.30;100.00;100111.78;5044029;28;20660;-78
2022/01/08 04:18:59;;;;;;;22.38;10.25;;;;;;;0.38;100.00;100124.38;5043941;28;20337;-76
2022/01/08 04:24:03;;;;;;;19.63;9.93;;;;;;;0.37;100.00;100123.50;5031543;28;20044;-76
2022/01/08 04:26:28;;;;;;;18.23;9.45;;;;;;;0.32;100.00;100109.06;5031220;28;20095;-76
2022/01/08 04:28:54;;;;;;;19.27;8.73;;;;;;;0.35;100.00;100114.06;5047186;28;20021;-78
2022/01/08 04:31:21;;;;;;;20.63;9.50;;;;;;;0.37;100.00;100126.13;5030588;28;20494;-77
2022/01/08 04:33:46;;;;;;;19.95;9.95;;;;;;;0.36;100.00;100108.72;5021679;28;20034;-78
2022/01/08 04:36:12;;;;;;;19.67;10.02;;;;;;;0.36;100.00;100108.72;5022215;28;20064;-77
2022/01/08 04:38:37;;;;;;;20.27;9.77;;;;;;;0.39;100.00;100111.09;5045555;28;20057;-78
2022/01/08 04:41:03;;;;;;;26.25;10.88;;;;;;;0.38;100.00;100116.50;5022100;28;20795;-77
2022/01/08 04:43:29;;;;;;;20.43;10.33;;;;;;;0.34;100.00;100104.53;5038354;28;20095;-77
2022/01/08 04:45:55;;;;;;;21.27;9.82;;;;;;;0.40;100.00;100120.69;5035874;28;20049;-77
2022/01/08 04:48:21;;;;;;;25.50;10.00;;;;;;;0.34;100.00;100115.03;5034932;28;20432;-77
2022/01/08 04:50:46;;;;;;;21.27;10.27;;;;;;;0.34;100.00;100115.88;5021452;28;20033;-77
2022/01/08 04:53:12;;;;;;;22.38;10.55;;;;;;;0.34;100.00;100117.66;5037668;28;20069;-78
2022/01/08 04:55:38;;;;;;;23.00;10.23;;;;;;;0.44;100.00;100146.72;5039429;28;20083;-77
2022/01/08 04:58:04;;;;;;;;;;;;;;;0.38;100.00;100129.63;5018685;28;20051;-76
2022/01/08 05:00:30;;;;;;;21.98;12.10;;;;;;;0.35;100.00;100132.44;5019657;28;20366;-77
2022/01/08 05:02:55;;;;;;;26.40;12.23;;;;;;;0.45;100.00;100153.66;5022210;28;20072;-77
2022/01/08 05:05:21;;;;;;;27.20;11.07;;;;;;;0.33;100.00;100135.22;5038369;28;20254;-77
2022/01/08 05:07:46;;;;;;;30.17;14.13;;;;;;;0.45;100.00;100153.66;5030029;28;20276;-78
2022/01/08 05:10:12;;;;;;;26.27;12.63;;;;;;;0.35;100.00;100138.56;5032545;28;20041;-78
2022/01/08 05:12:38;;;;;;;25.23;10.77;;;;;;;0.24;100.00;100129.78;5049755;28;20037;-78
2022/01/08 05:15:04;;;;;;;25.73;10.38;;;;;;;0.31;100.00;100146.78;5037540;28;20048;-77
2022/01/08 05:17:34;;;;;;;25.67;12.65;;;;;;;0.27;100.00;100148.78;5038277;28;20064;-77
2022/01/08 05:20:02;;;;;;;22.38;11.10;;;;;;;0.27;100.00;100167.16;5020929;28;20037;-77
2022/01/08 05:22:30;;;;;;;23.02;11.55;;;;;;;0.37;100.00;100181.28;5038239;28;20447;-77
2022/01/08 05:24:56;;;;;;;24.85;11.52;;;;;;;0.23;100.00;100165.69;5034696;28;20033;-78
2022/01/08 05:27:22;;;;;;;30.77;12.77;;;;;;;0.37;100.00;100197.03;5032177;28;20021;-77
2022/01/08 05:29:48;;;;;;;;;;;;;;;0.42;100.00;100196.72;5029643;28;20722;-76
2022/01/08 05:32:18;;;;;;;21.40;11.38;;;;;;;0.38;100.00;100205.78;5021164;28;19912;-78
2022/01/08 05:34:45;;;;;;;23.48;11.60;;;;;;;0.40;100.00;100204.72;5007720;28;20507;-77
2022/01/08 05:37:11;;;;;;;24.38;11.50;;;;;;;0.38;100.00;100197.91;5024746;28;20395;-77
2022/01/08 05:39:37;;;;;;;23.85;10.50;;;;;;;0.36;100.00;100194.53;5024074;28;20060;-78
2022/01/08 05:42:03;;;;;;;24.33;11.38;;;;;;;0.39;100.00;100200.41;5021132;28;20029;-77
2022/01/08 05:44:28;;;;;;;25.60;11.15;;;;;;;0.39;100.00;100197.78;5035059;28;20066;-76
2022/01/08 05:46:54;;;;;;;26.63;11.57;;;;;;;0.36;100.00;100199.81;5039042;28;20029;-76
2022/01/08 05:49:19;;;;;;;24.70;12.03;;;;;;;0.34;100.00;100188.56;5034580;28;20280;-77
2022/01/08 05:51:44;;;;;;;26.97;11.93;;;;;;;0.33;100.00;100186.91;5035984;28;20339;-78
2022/01/08 05:54:10;;;;;;;25.38;11.95;;;;;;;0.22;100.00;100185.03;5020553;28;20039;-78
2022/01/08 05:56:35;;;;;;;36.35;13.95;;;;;;;0.34;100.00;100205.16;5037211;28;20032;-78
2022/01/08 05:59:01;;;;;;;24.65;11.55;;;;;;;0.47;100.00;100226.13;5039753;28;20449;-77
2022/01/08 06:01:27;;;;;;;23.27;12.15;;;;;;;0.50;100.00;100230.31;5022070;28;20116;-77
2022/01/08 06:03:52;;;;;;;26.50;12.68;;;;;;;0.54;100.00;100230.00;5034683;28;20134;-79
2022/01/08 06:06:17;;;;;;;26.83;12.40;;;;;;;0.39;100.00;100217.94;5033636;28;20926;-78
2022/01/08 06:08:43;;;;;;;31.03;12.10;;;;;;;0.39;100.00;100218.78;5033573;28;20729;-77
2022/01/08 06:11:08;;;;;;;36.60;12.97;;;;;;;0.29;100.00;100207.28;5033138;28;20314;-76
2022/01/08 06:13:33;;;;;;;29.40;12.63;;;;;;;0.35;100.00;100213.84;5023034;28;20665;-75
2022/01/08 06:15:59;;;;;;;29.88;11.80;;;;;;;0.47;100.00;100251.53;5011576;28;20112;-77
2022/01/08 06:18:25;;;;;;;27.73;11.27;;;;;;;0.43;100.00;100239.59;5028956;28;20088;-78
2022/01/08 06:20:50;;;;;;;28.50;13.38;;;;;;;0.29;100.00;100225.66;5011929;28;20040;-78
2022/01/08 06:23:16;;;;;;;29.38;13.00;;;;;;;0.37;100.00;100240.84;5019883;28;20057;-77
2022/01/08 06:25:43;;;;;;;25.67;11.68;;;;;;;0.40;100.00;100238.88;5029506;28;20049;-77
2022/01/08 06:28:11;;;;;;;25.13;11.57;;;;;;;0.38;100.00;100243.38;5040530;28;20500;-77
2022/01/08 06:30:37;;;;;;;24.80;12.40;;;;;;;0.24;100.00;100225.16;5016864;28;20491;-79
2022/01/08 06:33:02;;;;;;;28.27;12.60;;;;;;;0.33;100.00;100239.41;5018977;28;20044;-78
2022/01/08 06:35:28;;;;;;;28.10;13.45;;;;;;;0.31;100.00;100239.53;5010508;28;20060;-77
2022/01/08 06:37:53;;;;;;;24.85;12.75;;;;;;;0.32;100.00;100249.06;5035940;28;20617;-77
2022/01/08 06:40:18;;;;;;;30.20;10.63;;;;;;;0.50;100.00;100277.59;5028980;28;20020;-77
2022/01/08 06:42:44;;;;;;;36.08;11.70;;;;;;;0.48;100.00;100279.50;5033973;28;20049;-76
2022/01/08 06:45:10;;;;;;;24.48;11.68;;;;;;;0.51;100.00;100289.78;5041026;28;20032;-79
2022/01/08 06:47:35;;;;;;;25.38;10.80;;;;;;;0.53;100.00;100290.50;5036645;28;20038;-79
2022/01/08 06:50:01;;;;;;;27.70;11.57;;;;;;;0.53;100.00;100293.97;5032192;28;20037;-79
2022/01/08 06:52:26;;;;;;;24.77;10.93;;;;;;;0.55;100.00;100286.00;5017846;28;20124;-78
2022/01/08 06:54:52;;;;;;;23.40;11.23;;;;;;;0.60;100.00;100304.88;5027862;28;20061;-77
2022/01/08 06:57:17;;;;;;;26.35;11.70;;;;;;;0.51;100.00;100271.38;5038922;28;20588;-78
2022/01/08 06:59:42;;;;;;;25.20;10.53;;;;;;;0.51;100.00;100272.22;5032585;28;20515;-78
2022/01/08 07:02:08;;;;;;;23.90;10.90;;;;;;;0.55;100.00;100280.75;5020428;28;20100;-78
2022/01/08 07:04:33;;;;;;;26.53;11.43;;;;;;;0.52;100.00;100275.72;5044384;28;20279;-77
2022/01/08 07:06:59;;;;;;;26.27;11.17;;;;;;;0.50;100.00;100274.97;5011507;28;20029;-77
2022/01/08 07:09:25;;;;;;;24.35;10.88;;;;;;;0.66;100.00;100307.09;5019546;28;20483;-77
2022/01/08 07:11:50;;;;;;;31.02;11.13;;;;;;;0.53;100.00;100280.00;5020886;28;20039;-77
2022/01/08 07:14:16;;;;;;;28.50;11.83;;;;;;;0.56;100.00;100291.16;5020476;28;20089;-78
2022/01/08 07:16:41;;;;;;;24.92;11.75;;;;;;;0.55;100.00;100286.00;5018811;28;20136;-77
2022/01/08 07:19:07;;;;;;;28.40;13.00;;;;;;;0.54;100.00;100294.81;5032350;28;20021;-77
2022/01/08 07:21:32;;;;;;;24.77;12.23;;;;;;;0.41;100.00;100264.16;5017579;28;20048;-78
2022/01/08 07:23:57;;;;;;;29.35;14.45;;;;;;;0.52;100.00;100275.72;5029361;28;20114;-77
2022/01/08 07:26:23;;;;;;;36.08;13.88;;;;;;;0.38;100.00;100269.66;5044219;28;20044;-77
2022/01/08 07:28:48;;;;;;;28.83;13.00;;;;;;;0.35;100.00;100261.13;5020744;28;20029;-76
2022/01/08 07:31:14;;;;;;;30.23;13.00;;;;;;;0.35;100.00;100280.38;5018886;28;20033;-78
2022/01/08 07:33:39;;;;;;;26.00;12.13;;;;;;;0.49;100.00;100304.81;5035152;28;20057;-78
2022/01/08 07:36:05;;;;;;;27.65;12.57;;;;;;;0.56;100.00;100298.16;5035857;28;20037;-77
2022/01/08 07:38:31;;;;;;;24.58;12.40;;;;;;;0.49;100.00;100286.41;5019266;28;20037;-78
2022/01/08 07:40:56;;;;;;;31.50;12.68;;;;;;;0.45;100.00;100269.22;5016266;28;20041;-79
2022/01/08 07:43:22;;;;;;;24.17;11.40;;;;;;;0.47;100.00;100283.06;5041886;28;20083;-78
2022/01/08 07:45:47;;;;;;;27.40;12.38;;;;;;;0.58;100.00;100302.34;5016894;28;20083;-78
2022/01/08 07:48:13;;;;;;;28.10;11.80;;;;;;;0.64;100.00;100301.09;5015424;28;20033;-77
2022/01/08 07:50:39;;;;;;;26.13;11.95;;;;;;;0.61;100.00;100291.66;5033499;28;20042;-75
2022/01/08 07:53:04;;;;;;;26.98;12.45;;;;;;;0.68;100.00;100306.97;5029245;28;20025;-78
2022/01/08 07:55:30;;;;;;;25.33;13.77;;;;;;;0.64;100.00;100295.84;5035653;28;20076;-77
2022/01/08 07:57:55;;;;;;;25.05;11.27;;;;;;;0.54;100.00;100273.78;5038202;28;20030;-78
2022/01/08 08:00:20;;;;;;;24.42;12.23;;;;;;;0.72;100.00;100309.25;5043995;28;20033;-79
2022/01/08 08:02:46;;;;;;;25.65;10.55;;;;;;;0.67;100.00;100298.25;5027557;28;20033;-79
2022/01/08 08:05:11;;;;;;;20.17;11.43;;;;;;;0.73;100.00;100289.09;5034903;28;20037;-79
2022/01/08 08:07:38;;;;;;;24.73;10.45;;;;;;;0.62;100.00;100271.47;5018586;28;20273;-78
2022/01/08 08:10:04;;;;;;;;;;;;;;;0.72;100.00;100274.25;5016025;28;20030;-78
2022/01/08 08:12:29;;;;;;;31.00;12.85;;;;;;;0.61;100.00;100269.81;5039160;28;19912;-79
2022/01/08 08:14:55;;;;;;;25.47;11.67;;;;;;;0.65;100.00;100279.13;5036973;28;20025;-77
2022/01/08 08:17:20;;;;;;;23.70;11.57;;;;;;;0.55;100.00;100263.19;5032209;28;20026;-79
2022/01/08 08:19:46;;;;;;;21.30;10.63;;;;;;;0.65;100.00;100281.75;5016985;28;20567;-79
2022/01/08 08:22:11;;;;;;;28.17;12.47;;;;;;;0.59;100.00;100271.69;5035201;28;20120;-79
2022/01/08 08:24:36;;;;;;;26.75;10.43;;;;;;;0.64;100.00;100280.09;5039148;28;20640;-78
2022/01/08 08:27:02;;;;;;;25.33;10.67;;;;;;;0.74;100.00;100307.38;5039602;28;20380;-79
2022/01/08 08:29:27;;;;;;;22.88;9.93;;;;;;;0.71;100.00;100304.97;5039066;28;20029;-78
2022/01/08 08:31:52;;;;;;;21.40;10.40;;;;;;;0.74;100.00;100306.53;5017789;28;20025;-79
2022/01/08 08:34:18;;;;;;;28.97;11.03;;;;;;;0.71;100.00;100297.09;5018734;28;20034;-78
2022/01/08 08:36:43;;;;;;;25.43;11.13;;;;;;;0.79;100.00;100305.25;5010628;28;20823;-78
2022/01/08 08:39:09;;;;;;;20.42;9.65;;;;;;;0.75;100.00;100288.03;5043310;28;20390;-79
2022/01/08 08:41:34;;;;;;;23.63;10.13;;;;;;;0.79;100.00;100294.72;5018959;28;20029;-78
2022/01/08 08:43:59;;;;;;;23.30;11.43;;;;;;;0.91;100.00;100305.31;5034979;28;20287;-79
2022/01/08 08:46:25;;;;;;;19.17;8.90;;;;;;;0.95;100.00;100310.22;5019149;28;20035;-79
2022/01/08 08:48:50;;;;;;;26.77;9.90;;;;;;;0.89;100.00;100284.41;5018558;28;20064;-78
2022/01/08 08:51:15;;;;;;;23.00;10.90;;;;;;;0.91;100.00;100282.47;5019206;28;20051;-79
2022/01/08 08:53:41;;;;;;;21.70;9.63;;;;;;;0.91;100.00;100281.66;5042795;28;20041;-79
2022/01/08 08:56:07;;;;;;;24.42;10.45;;;;;;;0.94;100.00;100278.81;5019063;28;20044;-79
2022/01/08 08:58:32;;;;;;;20.17;10.75;;;;;;;0.91;100.00;100276.41;5018815;28;20050;-77
2022/01/08 09:00:58;;;;;;;27.53;10.33;;;;;;;0.94;100.00;100274.41;5020788;28;20033;-78
2022/01/08 09:03:23;;;;;;;21.87;11.07;;;;;;;0.99;100.00;100285.41;5019050;28;20288;-77
2022/01/08 09:05:48;;;;;;;21.67;9.50;;;;;;;1.06;100.00;100288.44;5033308;28;20475;-79
2022/01/08 09:08:14;;;;;;;16.57;8.93;;;;;;;1.10;100.00;100284.63;5040946;28;20553;-78
2022/01/08 09:10:39;;;;;;;21.58;10.63;;;;;;;1.05;100.00;100265.69;5029942;28;20372;-78
2022/01/08 09:13:05;;;;;;;23.33;11.00;;;;;;;1.12;100.00;100273.97;5031712;28;20040;-78
2022/01/08 09:15:30;;;;;;;18.70;9.23;;;;;;;1.17;100.00;100275.34;5046626;28;20268;-77
2022/01/08 09:17:57;;;;;;;23.63;10.60;;;;;;;1.16;100.00;100263.13;5020281;28;20045;-77
2022/01/08 09:20:27;;;;;;;25.38;10.52;;;;;;;1.13;100.00;100250.22;5019368;28;20030;-78
2022/01/08 09:22:52;;;;;;;20.83;9.13;;;;;;;1.14;100.00;100246.63;5021028;28;20124;-77
2022/01/08 09:25:19;;;;;;;21.67;9.02;;;;;;;1.07;100.00;100229.63;5022719;28;20184;-77
2022/01/08 09:27:45;;;;;;;22.33;10.02;;;;;;;1.17;100.00;100243.78;5029154;28;20497;-76
2022/01/08 09:30:11;;;;;;;23.70;10.82;;;;;;;1.21;100.00;100252.25;5040718;28;20108;-78
2022/01/08 09:32:37;;;;;;;25.38;11.52;;;;;;;1.17;100.00;100235.91;5022836;28;20045;-77
2022/01/08 09:35:03;;;;;;;22.00;10.52;;;;;;;1.17;100.00;100240.28;5019274;28;20117;-78
2022/01/08 09:37:29;;;;;;;24.95;9.98;;;;;;;1.16;100.00;100239.47;5035776;28;20034;-76
2022/01/08 09:39:54;;;;;;;26.25;10.27;;;;;;;1.12;100.00;100235.38;5021542;28;20107;-77
2022/01/08 09:42:20;;;;;;;19.80;9.77;;;;;;;1.16;100.00;100231.56;5039120;28;20103;-77
2022/01/08 09:44:46;;;;;;;27.40;10.68;;;;;;;1.27;100.00;100244.75;5020808;28;20689;-77
2022/01/08 09:47:12;;;;;;;19.92;9.95;;;;;;;1.37;100.00;100262.47;5040170;28;20042;-77
2022/01/08 09:49:38;;;;;;;23.30;9.65;;;;;;;1.38;100.00;100262.38;5027239;28;20032;-77
2022/01/08 09:52:05;;;;;;;20.13;9.07;;;;;;;1.37;100.00;100250.16;5018734;28;20491;-79
2022/01/08 09:54:31;;;;;;;20.95;8.45;;;;;;;1.28;100.00;100221.91;5035166;28;20518;-77
2022/01/08 09:56:57;;;;;;;21.48;9.95;;;;;;;1.15;100.00;100190.47;5018833;28;20033;-77
2022/01/08 09:59:22;;;;;;;19.20;8.80;;;;;;;1.18;100.00;100203.38;5035228;28;20100;-77
2022/01/08 10:01:56;;;;;;;18.15;9.45;;;;;;;1.39;100.00;100223.75;5036486;28;20038;-78
2022/01/08 10:04:41;;;;;;;19.55;9.18;;;;;;;1.35;100.00;100207.34;5021751;28;20140;-77
2022/01/08 10:07:24;;;;;;;19.30;8.27;;;;;;;1.44;100.00;100198.75;5039448;28;20565;-77
2022/01/08 10:10:10;;;;;;;20.35;8.65;;;;;;;1.34;100.00;100189.91;5021448;28;20026;-77
2022/01/08 10:12:47;;;;;;;18.73;8.43;;;;;;;1.38;100.00;100179.97;5026714;28;20033;-78
2022/01/08 10:18:01;;;;;;;17.20;8.38;;;;;;;1.51;100.00;100185.97;5046350;28;20167;-78
2022/01/08 10:20:27;;;;;;;18.00;7.38;;;;;;;1.43;100.00;100159.44;5022981;28;20506;-77
2022/01/08 10:23:18;;;;;;;24.73;9.18;;;;;;;1.52;100.00;100171.84;5021193;28;20041;-77
2022/01/08 10:26:04;;;;;;;18.52;8.40;;;;;;;1.73;100.00;100195.66;5023193;28;20042;-78
2022/01/08 10:28:42;;;;;;;;;;;;;;;1.94;100.00;100223.91;5042039;28;20033;-78
2022/01/08 10:31:11;;;;;;;35.00;7.95;;;;;;;2.13;100.00;100218.03;5022224;28;19921;-78
2022/01/08 10:33:38;;;;;;;16.83;8.70;;;;;;;2.03;100.00;100181.91;5012066;28;20033;-78
2022/01/08 10:36:04;;;;;;;23.45;9.57;;;;;;;1.96;100.00;100162.28;5019736;28;20083;-80
2022/01/08 10:38:30;;;;;;;19.42;7.80;;;;;;;1.86;100.00;100135.03;5028254;28;20025;-79
2022/01/08 10:40:56;;;;;;;17.48;7.97;;;;;;;1.99;100.00;100140.13;5028675;28;20526;-78
2022/01/08 10:43:27;;;;;;;15.50;6.55;;;;;;;1.86;100.00;100111.34;5020829;28;20434;-77
2022/01/08 10:45:55;;;;;;;19.83;8.18;;;;;;;1.76;100.00;100098.06;5018074;28;20050;-78
2022/01/08 10:48:29;;;;;;;15.88;7.05;;;;;;;1.84;100.00;100100.09;5006478;28;20026;-80
2022/01/08 10:51:08;;;;;;;13.32;6.90;;;;;;;1.99;100.00;100108.53;5027950;28;20099;-76
2022/01/08 10:54:14;;;;;;;13.65;7.07;;;;;;;1.99;100.00;100112.03;5015588;28;20045;-78
2022/01/08 10:56:40;;;;;;;17.40;7.47;;;;;;;1.94;100.00;100102.81;5024379;28;20243;-77
2022/01/08 10:59:09;;;;;;;20.90;8.57;;;;;;;1.94;100.00;100093.13;5015883;28;20032;-77
2022/01/08 11:01:47;;;;;;;21.13;8.38;;;;;;;1.81;100.00;100064.31;5023599;28;20041;-77
2022/01/08 11:04:16;;;;;;;15.25;6.90;;;;;;;1.96;100.00;100095.63;5023587;28;20304;-78
2022/01/08 11:06:57;;;;;;;16.38;8.18;;;;;;;2.17;100.00;100108.88;5037356;28;20025;-79
2022/01/08 11:09:24;;;;;;;15.05;7.55;;;;;;;2.06;100.00;100071.09;5021200;28;20747;-78
2022/01/08 11:11:51;;;;;;;15.70;7.97;;;;;;;2.01;100.00;100057.44;5013357;28;20053;-78
2022/01/08 11:17:36;;;;;;;27.05;9.75;;;;;;;2.20;100.00;100077.88;4960338;28;20082;-77
2022/01/08 11:20:04;;;;;;;16.80;8.13;;;;;;;2.43;100.00;100118.13;4990586;28;20132;-77
2022/01/08 11:22:32;;;;;;;17.40;9.00;;;;;;;2.39;100.00;100100.91;5020736;28;20052;-79
2022/01/08 11:25:07;;;;;;;16.08;8.25;;;;;;;2.44;100.00;100104.00;5026051;28;20029;-78
2022/01/08 11:27:55;;;;;;;17.30;7.75;;;;;;;2.73;100.00;100130.56;5023227;28;20041;-80
2022/01/08 11:30:26;;;;;;;18.42;7.65;;;;;;;2.61;100.00;100081.50;5009406;28;20037;-78
2022/01/08 11:32:57;;;;;;;17.98;7.55;;;;;;;2.73;100.00;100085.75;5033627;28;20061;-80
2022/01/08 11:35:24;;;;;;;17.30;7.47;;;;;;;2.77;100.00;100081.06;5020425;28;20116;-78
2022/01/08 11:37:52;;;;;;;17.13;7.63;;;;;;;2.99;100.00;100095.09;5022911;28;20056;-78
2022/01/08 11:40:21;;;;;;;20.10;7.35;;;;;;;2.98;100.00;100077.59;5028051;28;20175;-79